ベレン の空港の天気 - METARとTAF

ベレン国際空港 ( SBBE / BEL ) - ブラジル パラー州ベレン
飛行場実況気象(Metar)
観測時間04/21 13:00 AMT (04/21 17:00 UTC)
風向・風速北 5m/s
視程10km以上
天気現象
全天の4割程度の雲 雲底高度 460m
全天の4割程度の雲 雲底高度 610m
気温27℃
湿度84%
気圧1010hPa
METARSBBE 211700Z 36009KT 9999 SCT015 SCT020 27/24 Q1010 RETS
過去の天気等 Google飛行場航空写真 Wunderground天気予報

過去48時間のMETAR

飛行場予報(TAF)
発表時間: 4/21 06:00 AMT (4/21 10:00 UTC)
予報対象時間: 21日8時 AMT ~ 22日8時 AMT
風向・風速東 2m/s
視程8000m
全天の4割程度の雲 雲底高度 300m
21日8時 AMT ~ 21日10時 AMT に 確率 40% で一時的に
全天の8割程度の雲 雲底高度 300m
21日9時 AMT ~ 21日10時 AMT に徐々に
風向・風速東 5m/s
全天の4割程度の雲 雲底高度 460m
21日15時 AMT から 確率 30% で
視程6000m
天気現象雷雨
全天の8割程度の雲 雲底高度 460m
少しの積乱雲 雲底高度 760m
21日18時 AMT ~ 21日20時 AMT に徐々に
風向・風速東北東 2m/s
全天の4割程度の雲 雲底高度 610m
22日5時 AMT から 確率 30% で
全天の8割程度の雲 雲底高度 300m
TAF SBBE 211000Z 2112/2212 08004KT 8000 SCT010 TX29/2117Z TN24/2208Z
PROB40 TEMPO 2112/2114 BKN010
BECMG 2113/2114 08009KT SCT015
BECMG 2116/211 8 03005KT BKN018 FEW025TCU
PROB30 2119/2121 6000 TSRA BKN015 FEW025CB
BECMG 2122/2124 06004KT SCT020
PROB30 2209/2210 BKN010 RMK PEU